Etusivu
METAR-TAF:

METAR-TAF

Lentoasemat :

Don Muangin kansainvälinen lentoasema

Bangkok, Thaimaa

Leveyspiiri: 13-54-45N, Pituuspiiri: 100-36-24E, korkeus merenpinnasta: 4 m

Tämänhetkinen sää

Tämä raportti tehtiin 15 minuuttia sitten, kello 10.30 UTC
Tuuli 11 kn etelästä
Lämpötila 34°C
Kosteus 44%
Ilmanpaine 1007 hPa
Näkyvyys 10 km tai enemmän
Muutamia pilviä 2000 ft:n korkeudessa

METAR: VTBD 081030Z 18011KT 9999 FEW020 34/20 Q1007 NOSIG

Aika: 17:45 (10:45 UTC)

Sääennuste

Tämä raportti tehtiin 5 tuntia ja 45 minuuttia sitten, kello 05.00 UTC
Ennuste voimassa 08. päivästä klo 06 UTC - 09. päivään klo 12 UTC
Tuuli 10 kn etelästä
Näkyvyys 10 km tai enemmän
Muutamia pilviä 2000 ft:n korkeudessa
Tulossa
08. päivästä klo 21 UTC - 08. päivään klo 23 UTC
Tuuli 5 kn idästä/kaakosta
Tulossa
09. päivästä klo 01 UTC - 09. päivään klo 03 UTC
Tuuli 10 kn etelästä

TAF: VTBD 080500Z 0806/0912 18010KT 9999 FEW020 BECMG 0821/0823 11005KT BECMG 0901/0903 19010KT

Säähavainnot ja -ennusteet yli 4000 lentoasemalta (METAR- ja TAF-raportit).

Käytössä olevat sääasemat on merkitty karttaan keltaisilla ja punaisilla pisteillä.

Aseta hiiri pisteen päälle nähdäksesi sääaseman nimen.

Klikkaa sitten nähdäksesi säähavainnot ja -ennusteet.

Kartan vaihtaminen: klikkaa mustalla rastilla varustettuja vihreitä pisteitä, niin voit zoomata sisään; viivalla varustettua vihreää pistettä, niin voit zoomata ulos tai vihreitä nuolia, niin pääset viereisille kartoille.


METAR-TAF: